Time;durP1;ratioP1;P1;durP2;ratioP2;P2;SDS_P1;SDS_P2;PMS_P1;PMS_P2;Temp;Humidity;BMP_temperature;BMP_pressure;BME280_temperature;BME280_humidity;BME280_pressure;Samples;Min_cycle;Max_cycle;Signal;HPM_P1;HPM_P2
2023/01/11 00:01:39;;;;;;;;;;;;;;;;;;4900319;29;19955;-80
2023/01/11 00:04:04;;;;;;;;;;;;;;;;;;4896073;29;20003;-80
2023/01/11 00:06:29;;;;;;;;;;;;;;;;;;4881388;29;19916;-80
2023/01/11 00:08:55;;;;;;;;;;;;;;;;;;4896150;29;20300;-80
2023/01/11 00:11:20;;;;;;;;;;;;;;;;;;4896078;29;20411;-80
2023/01/11 00:13:46;;;;;;;;;;;;;;;;;;4881717;29;19915;-80
2023/01/11 00:16:11;;;;;;;;;;;;;;;;;;4865040;29;20296;-80
2023/01/11 00:18:36;;;;;;;;;;;;;;;;;;4881754;29;19972;-80
2023/01/11 00:21:04;;;;;;;;;;;;;;;;;;4880279;29;19931;-80
2023/01/11 00:23:29;;;;;;;;;;;;;;;;;;4880221;29;20026;-80
2023/01/11 00:25:55;;;;;;;;;;;;;;;;;;4881471;29;20007;-78
2023/01/11 00:28:20;;;;;;;;;;;;;;;;;;4896092;29;20407;-80
2023/01/11 00:30:45;;;;;;;;;;;;;;;;;;4901480;29;19915;-80
2023/01/11 00:33:11;;;;;;;;;;;;;;;;;;4885540;29;19950;-80
2023/01/11 00:35:36;;;;;;;;;;;;;;;;;;4889134;29;19963;-82
2023/01/11 00:38:02;;;;;;;;;;;;;;;;;;4891010;29;19930;-81
2023/01/11 00:40:27;;;;;;;;;;;;;;;;;;4901381;29;19920;-79
2023/01/11 00:48:21;;;;;;;;;;;;;;;;;;4864337;29;20300;-79
2023/01/11 00:50:46;;;;;;;;;;;;;;;;;;4879730;29;19916;-80
2023/01/11 00:53:13;;;;;;;;;;;;;;;;;;4879873;29;20006;-80
2023/01/11 00:55:38;;;;;;;;;;;;;;;;;;4881001;29;19911;-81
2023/01/11 00:58:04;;;;;;;;;;;;;;;;;;4881125;29;20269;-80
2023/01/11 01:00:29;;;;;;;;;;;;;;;;;;4879909;29;20304;-80
2023/01/11 01:02:54;;;;;;;;;;;;;;;;;;4888578;29;20315;-80
2023/01/11 01:05:20;;;;;;;;;;;;;;;;;;4898311;29;20261;-81
2023/01/11 01:07:45;;;;;;;;;;;;;;;;;;4898422;29;19916;-80
2023/01/11 01:10:11;;;;;;;;;;;;;;;;;;4899290;29;20320;-79
2023/01/11 01:15:20;;;;;;;;;;;;;;;;;;4899365;29;19922;-80
2023/01/11 01:17:45;;;;;;;;;;;;;;;;;;4898613;29;20002;-80
2023/01/11 01:20:11;;;;;;;;;;;;;;;;;;4899261;29;19919;-80
2023/01/11 01:22:36;;;;;;;;;;;;;;;;;;4899528;29;19979;-80
2023/01/11 01:25:01;;;;;;;;;;;;;;;;;;4899152;29;19919;-80
2023/01/11 01:27:27;;;;;;;;;;;;;;;;;;4899542;29;19916;-80
2023/01/11 01:29:52;;;;;;;;;;;;;;;;;;4898379;29;20271;-80
2023/01/11 01:32:18;;;;;;;;;;;;;;;;;;4898758;29;19955;-80
2023/01/11 01:34:43;;;;;;;;;;;;;;;;;;4882803;29;20286;-80
2023/01/11 01:37:08;;;;;;;;;;;;;;;;;;4899089;29;19916;-80
2023/01/11 01:39:34;;;;;;;;;;;;;;;;;;4882136;29;20291;-80
2023/01/11 01:41:59;;;;;;;;;;;;;;;;;;4882343;29;19916;-80
2023/01/11 01:44:24;;;;;;;;;;;;;;;;;;4898731;29;20022;-80
2023/01/11 01:46:50;;;;;;;;;;;;;;;;;;4897623;29;20294;-80
2023/01/11 01:49:15;;;;;;;;;;;;;;;;;;4900133;29;19916;-80
2023/01/11 01:51:41;;;;;;;;;;;;;;;;;;4899785;29;20363;-80
2023/01/11 01:54:06;;;;;;;;;;;;;;;;;;4901033;29;19920;-80
2023/01/11 01:56:31;;;;;;;;;;;;;;;;;;4898555;29;19916;-80
2023/01/11 01:58:57;;;;;;;;;;;;;;;;;;4899494;29;20006;-80
2023/01/11 02:04:06;;;;;;;;;;;;;;;;;;4901324;29;19963;-80
2023/01/11 02:06:32;;;;;;;;;;;;;;;;;;4915451;29;19916;-80
2023/01/11 02:08:57;;;;;;;;;;;;;;;;;;4907074;29;19915;-78
2023/01/11 02:11:29;;;;;;;;;;;;;;;;;;4882763;29;19930;-80
2023/01/11 02:13:54;;;;;;;;;;;;;;;;;;4886485;29;19915;-80
2023/01/11 02:16:19;;;;;;;;;;;;;;;;;;4880146;29;19964;-80
2023/01/11 02:18:45;;;;;;;;;;;;;;;;;;4879405;29;19920;-80
2023/01/11 02:21:10;;;;;;;;;;;;;;;;;;4880053;29;19920;-80
2023/01/11 02:23:35;;;;;;;;;;;;;;;;;;4879402;29;20376;-81
2023/01/11 02:26:01;;;;;;;;;;;;;;;;;;4891502;29;19919;-79
2023/01/11 02:28:26;;;;;;;;;;;;;;;;;;4880905;29;19986;-80
2023/01/11 02:30:52;;;;;;;;;;;;;;;;;;4881060;29;19927;-80
2023/01/11 02:33:17;;;;;;;;;;;;;;;;;;4865071;29;20452;-80
2023/01/11 02:35:42;;;;;;;;;;;;;;;;;;4865566;29;19939;-80
2023/01/11 02:38:08;;;;;;;;;;;;;;;;;;4864467;29;19915;-80
2023/01/11 02:40:33;;;;;;;;;;;;;;;;;;4895892;29;20300;-78
2023/01/11 02:45:43;;;;;;;;;;;;;;;;;;4881737;29;19919;-80
2023/01/11 02:48:08;;;;;;;;;;;;;;;;;;4881936;29;19916;-80
2023/01/11 02:50:33;;;;;;;;;;;;;;;;;;4867055;29;20368;-81
2023/01/11 02:52:59;;;;;;;;;;;;;;;;;;4881806;29;20295;-80
2023/01/11 02:55:24;;;;;;;;;;;;;;;;;;4865068;29;19923;-78
2023/01/11 02:57:49;;;;;;;;;;;;;;;;;;4877730;29;20363;-78
2023/01/11 03:00:15;;;;;;;;;;;;;;;;;;4877827;29;19920;-80
2023/01/11 03:02:40;;;;;;;;;;;;;;;;;;4879653;29;19916;-80
2023/01/11 03:05:06;;;;;;;;;;;;;;;;;;4863630;29;19920;-80
2023/01/11 03:07:31;;;;;;;;;;;;;;;;;;4879912;29;20404;-81
2023/01/11 03:09:57;;;;;;;;;;;;;;;;;;4879860;29;19923;-79
2023/01/11 03:15:06;;;;;;;;;;;;;;;;;;4880130;29;19920;-80
2023/01/11 03:17:31;;;;;;;;;;;;;;;;;;4890370;29;20383;-80
2023/01/11 03:19:57;;;;;;;;;;;;;;;;;;4883424;29;20287;-80
2023/01/11 03:22:22;;;;;;;;;;;;;;;;;;4898142;29;19926;-80
2023/01/11 03:24:47;;;;;;;;;;;;;;;;;;4896065;29;20400;-80
2023/01/11 03:27:13;;;;;;;;;;;;;;;;;;4880761;29;20405;-80
2023/01/11 03:29:38;;;;;;;;;;;;;;;;;;4896268;29;19923;-80
2023/01/11 03:32:04;;;;;;;;;;;;;;;;;;4945806;23;20303;-76
2023/01/11 03:34:29;;;;;;;;;;;;;;;;;;4912441;29;19965;-77
2023/01/11 03:36:55;;;;;;;;;;;;;;;;;;4929718;29;19934;-75
2023/01/11 03:39:20;;;;;;;;;;;;;;;;;;4915976;29;20042;-75
2023/01/11 03:41:46;;;;;;;;;;;;;;;;;;4922225;29;19970;-74
2023/01/11 03:44:13;;;;;;;;;;;;;;;;;;4948033;29;19915;-74
2023/01/11 03:46:38;;;;;;;;;;;;;;;;;;4949627;29;19926;-76
2023/01/11 03:49:04;;;;;;;;;;;;;;;;;;4951066;29;19915;-74
2023/01/11 03:51:30;;;;;;;;;;;;;;;;;;4931448;29;19922;-75
2023/01/11 03:53:56;;;;;;;;;;;;;;;;;;4930648;29;19915;-74
2023/01/11 03:56:21;;;;;;;;;;;;;;;;;;4929237;29;19974;-75
2023/01/11 03:58:47;;;;;;;;;;;;;;;;;;4927486;29;19912;-75
2023/01/11 04:01:12;;;;;;;;;;;;;;;;;;4924329;29;19919;-77
2023/01/11 04:03:38;;;;;;;;;;;;;;;;;;4924874;29;19919;-77
2023/01/11 04:06:03;;;;;;;;;;;;;;;;;;4927151;29;19938;-76
2023/01/11 04:08:30;;;;;;;;;;;;;;;;;;4913178;29;20267;-76
2023/01/11 04:10:56;;;;;;;;;;;;;;;;;;4913589;29;19966;-77
2023/01/11 04:13:21;;;;;;;;;;;;;;;;;;4911261;29;19915;-76
2023/01/11 04:15:47;;;;;;;;;;;;;;;;;;4927626;29;19947;-77
2023/01/11 04:18:12;;;;;;;;;;;;;;;;;;4930229;29;19923;-75
2023/01/11 04:20:39;;;;;;;;;;;;;;;;;;4916449;29;19923;-77
2023/01/11 04:23:04;;;;;;;;;;;;;;;;;;4901009;29;19922;-77
2023/01/11 04:25:29;;;;;;;;;;;;;;;;;;4948218;29;20383;-76
2023/01/11 04:27:55;;;;;;;;;;;;;;;;;;4933495;29;19915;-76
2023/01/11 04:30:21;;;;;;;;;;;;;;;;;;4932946;29;19915;-75
2023/01/11 04:32:46;;;;;;;;;;;;;;;;;;4917388;29;19919;-75
2023/01/11 04:35:11;;;;;;;;;;;;;;;;;;4930500;29;19916;-75
2023/01/11 04:37:37;;;;;;;;;;;;;;;;;;4901573;29;19943;-75
2023/01/11 04:40:02;;;;;;;;;;;;;;;;;;4931584;29;20365;-75
2023/01/11 04:42:28;;;;;;;;;;;;;;;;;;4934377;29;19919;-75
2023/01/11 04:44:54;;;;;;;;;;;;;;;;;;4937548;29;19962;-77
2023/01/11 04:47:19;;;;;;;;;;;;;;;;;;4935818;29;19916;-77
2023/01/11 04:49:45;;;;;;;;;;;;;;;;;;4935537;29;19915;-78
2023/01/11 04:52:10;;;;;;;;;;;;;;;;;;4952519;29;19926;-75
2023/01/11 04:54:36;;;;;;;;;;;;;;;;;;4937083;29;19912;-76
2023/01/11 04:57:01;;;;;;;;;;;;;;;;;;4954207;29;19998;-76
2023/01/11 04:59:27;;;;;;;;;;;;;;;;;;4953920;29;19915;-78
2023/01/11 05:01:53;;;;;;;;;;;;;;;;;;4938296;29;19922;-77
2023/01/11 05:04:18;;;;;;;;;;;;;;;;;;4938551;29;19925;-76
2023/01/11 05:06:44;;;;;;;;;;;;;;;;;;4950349;29;19914;-75
2023/01/11 05:09:09;;;;;;;;;;;;;;;;;;4949449;29;19915;-74
2023/01/11 05:11:35;;;;;;;;;;;;;;;;;;4942622;29;19921;-77
2023/01/11 05:14:01;;;;;;;;;;;;;;;;;;4909187;29;19915;-75
2023/01/11 05:16:26;;;;;;;;;;;;;;;;;;4926165;29;19915;-76
2023/01/11 05:18:52;;;;;;;;;;;;;;;;;;4928056;29;19915;-76
2023/01/11 05:21:17;;;;;;;;;;;;;;;;;;4927129;29;19915;-75
2023/01/11 05:23:43;;;;;;;;;;;;;;;;;;4927138;29;19922;-75
2023/01/11 05:26:08;;;;;;;;;;;;;;;;;;4913653;29;19923;-76
2023/01/11 05:28:34;;;;;;;;;;;;;;;;;;4911752;29;19922;-76
2023/01/11 05:31:00;;;;;;;;;;;;;;;;;;4895308;29;19915;-76
2023/01/11 05:33:25;;;;;;;;;;;;;;;;;;4928087;29;19915;-75
2023/01/11 05:35:51;;;;;;;;;;;;;;;;;;4928786;29;19970;-76
2023/01/11 05:38:16;;;;;;;;;;;;;;;;;;4944707;29;19944;-75
2023/01/11 05:40:42;;;;;;;;;;;;;;;;;;4928714;29;20276;-74
2023/01/11 05:43:07;;;;;;;;;;;;;;;;;;4939948;29;19954;-75
2023/01/11 05:45:34;;;;;;;;;;;;;;;;;;4935500;29;19949;-75
2023/01/11 05:48:00;;;;;;;;;;;;;;;;;;4946182;29;19914;-76
2023/01/11 05:50:25;;;;;;;;;;;;;;;;;;4945245;29;19915;-77
2023/01/11 05:52:51;;;;;;;;;;;;;;;;;;4928449;29;19970;-76
2023/01/11 05:55:16;;;;;;;;;;;;;;;;;;4930082;29;19914;-76
2023/01/11 05:57:42;;;;;;;;;;;;;;;;;;4945473;29;20290;-77
2023/01/11 06:00:07;;;;;;;;;;;;;;;;;;4930339;29;20298;-75
2023/01/11 06:02:33;;;;;;;;;;;;;;;;;;4927734;29;19915;-77
2023/01/11 06:04:59;;;;;;;;;;;;;;;;;;4927014;29;19919;-78
2023/01/11 06:07:24;;;;;;;;;;;;;;;;;;4926334;29;19919;-76
2023/01/11 06:09:50;;;;;;;;;;;;;;;;;;4926997;29;19915;-77
2023/01/11 06:12:16;;;;;;;;;;;;;;;;;;4943691;29;19915;-76
2023/01/11 06:14:41;;;;;;;;;;;;;;;;;;4924079;29;19966;-78
2023/01/11 06:17:07;;;;;;;;;;;;;;;;;;4923068;29;19915;-75
2023/01/11 06:19:33;;;;;;;;;;;;;;;;;;4891439;29;19922;-76
2023/01/11 06:21:58;;;;;;;;;;;;;;;;;;4923258;29;19974;-79
2023/01/11 06:24:24;;;;;;;;;;;;;;;;;;4921893;29;19954;-75
2023/01/11 06:26:52;;;;;;;;;;;;;;;;;;4922677;29;20006;-77
2023/01/11 06:29:18;;;;;;;;;;;;;;;;;;4921525;29;19951;-77
2023/01/11 06:31:43;;;;;;;;;;;;;;;;;;4922915;29;20413;-76
2023/01/11 06:34:10;;;;;;;;;;;;;;;;;;4922849;29;19926;-78
2023/01/11 06:36:35;;;;;;;;;;;;;;;;;;4922078;29;20306;-76
2023/01/11 06:39:02;;;;;;;;;;;;;;;;;;4924273;29;19922;-77
2023/01/11 06:41:28;;;;;;;;;;;;;;;;;;4921952;29;19941;-77
2023/01/11 06:43:53;;;;;;;;;;;;;;;;;;4921436;29;19915;-77
2023/01/11 06:46:19;;;;;;;;;;;;;;;;;;4890080;29;19947;-75
2023/01/11 06:48:44;;;;;;;;;;;;;;;;;;4905166;29;19962;-75
2023/01/11 06:51:10;;;;;;;;;;;;;;;;;;4921336;29;19963;-77
2023/01/11 06:53:36;;;;;;;;;;;;;;;;;;4938568;29;19915;-76
2023/01/11 06:56:02;;;;;;;;;;;;;;;;;;4923198;29;19982;-76
2023/01/11 06:58:30;;;;;;;;;;;;;;;;;;4939247;29;19915;-75
2023/01/11 07:00:55;;;;;;;;;;;;;;;;;;4923305;29;19918;-77
2023/01/11 07:03:22;;;;;;;;;;;;;;;;;;4922832;29;19961;-76
2023/01/11 07:05:48;;;;;;;;;;;;;;;;;;4924251;29;19922;-76
2023/01/11 07:08:14;;;;;;;;;;;;;;;;;;4940187;29;19911;-75
2023/01/11 07:10:39;;;;;;;;;;;;;;;;;;4924160;29;19915;-76
2023/01/11 07:13:05;;;;;;;;;;;;;;;;;;4941286;29;19914;-75
2023/01/11 07:15:30;;;;;;;;;;;;;;;;;;4923716;29;19915;-78
2023/01/11 07:17:56;;;;;;;;;;;;;;;;;;4941099;29;19919;-75
2023/01/11 07:20:22;;;;;;;;;;;;;;;;;;4910682;29;19919;-78
2023/01/11 07:22:48;;;;;;;;;;;;;;;;;;4923299;29;20336;-77
2023/01/11 07:25:14;;;;;;;;;;;;;;;;;;4909331;29;19919;-77
2023/01/11 07:27:39;;;;;;;;;;;;;;;;;;4924311;29;19921;-75
2023/01/11 07:30:05;;;;;;;;;;;;;;;;;;4941778;29;19943;-75
2023/01/11 07:32:31;;;;;;;;;;;;;;;;;;4942579;29;19919;-77
2023/01/11 07:34:57;;;;;;;;;;;;;;;;;;4953260;29;19915;-84
2023/01/11 07:37:26;;;;;;;;;;;;;;;;;;4918477;29;19943;-81
2023/01/11 07:39:52;;;;;;;;;;;;;;;;;;4934484;29;19919;-83
2023/01/11 07:45:03;;;;;;;;;;;;;;;;;;4925808;29;19915;-85
2023/01/11 07:47:29;;;;;;;;;;;;;;;;;;4893558;29;20374;-80
2023/01/11 07:49:58;;;;;;;;;;;;;;;;;;4911795;29;19940;-86
2023/01/11 07:52:30;;;;;;;;;;;;;;;;;;4904104;29;19916;-84
2023/01/11 07:55:01;;;;;;;;;;;;;;;;;;4899034;29;19919;-78
2023/01/11 07:57:26;;;;;;;;;;;;;;;;;;4901439;29;19921;-82
2023/01/11 07:59:52;;;;;;;;;;;;;;;;;;4895799;29;19919;-80
2023/01/11 08:02:18;;;;;;;;;;;;;;;;;;4895282;29;20430;-78
2023/01/11 08:04:43;;;;;;;;;;;;;;;;;;4911583;29;19940;-81
2023/01/11 08:07:09;;;;;;;;;;;;;;;;;;4930231;29;19925;-80
2023/01/11 08:09:34;;;;;;;;;;;;;;;;;;4901307;29;19939;-82
2023/01/11 08:14:45;;;;;;;;;;;;;;;;;;4929547;29;19922;-83
2023/01/11 08:17:11;;;;;;;;;;;;;;;;;;4899883;29;19920;-85
2023/01/11 08:19:36;;;;;;;;;;;;;;;;;;4927683;29;19915;-79
2023/01/11 08:22:02;;;;;;;;;;;;;;;;;;4893765;29;19911;-84
2023/01/11 08:24:28;;;;;;;;;;;;;;;;;;4928259;29;19915;-82
2023/01/11 08:26:54;;;;;;;;;;;;;;;;;;4927329;29;19915;-84
2023/01/11 08:29:20;;;;;;;;;;;;;;;;;;4926963;29;19922;-83
2023/01/11 08:31:45;;;;;;;;;;;;;;;;;;4928909;29;19923;-82
2023/01/11 08:34:12;;;;;;;;;;;;;;;;;;4898627;29;19915;-81
2023/01/11 08:36:38;;;;;;;;;;;;;;;;;;4897422;29;19922;-81
2023/01/11 08:39:04;;;;;;;;;;;;;;;;;;4895384;29;20003;-80
2023/01/11 08:41:31;;;;;;;;;;;;;;;;;;4895664;29;19941;-83
2023/01/11 08:43:56;;;;;;;;;;;;;;;;;;4925981;29;20005;-81
2023/01/11 08:46:22;;;;;;;;;;;;;;;;;;4928440;29;19969;-82
2023/01/11 08:48:52;;;;;;;;;;;;;;;;;;4913172;29;19943;-82
2023/01/11 08:51:20;;;;;;;;;;;;;;;;;;4901647;29;19950;-81
2023/01/11 08:53:46;;;;;;;;;;;;;;;;;;4899403;29;19922;-84
2023/01/11 08:56:12;;;;;;;;;;;;;;;;;;4917936;29;19938;-83
2023/01/11 08:58:37;;;;;;;;;;;;;;;;;;4903503;29;19961;-85
2023/01/11 09:01:07;;;;;;;;;;;;;;;;;;4933428;29;19919;-81
2023/01/11 09:03:33;;;;;;;;;;;;;;;;;;4900011;29;19939;-82
2023/01/11 09:05:58;;;;;;;;;;;;;;;;;;4933491;29;19919;-83
2023/01/11 09:08:24;;;;;;;;;;;;;;;;;;4901775;29;19922;-81
2023/01/11 09:10:50;;;;;;;;;;;;;;;;;;4915939;29;19915;-82
2023/01/11 09:13:16;;;;;;;;;;;;;;;;;;4914565;29;19938;-83
2023/01/11 09:15:42;;;;;;;;;;;;;;;;;;4917066;29;20066;-85
2023/01/11 09:18:08;;;;;;;;;;;;;;;;;;4913976;29;19915;-81
2023/01/11 09:20:33;;;;;;;;;;;;;;;;;;4916220;29;19919;-81
2023/01/11 09:22:59;;;;;;;;;;;;;;;;;;4915337;29;19954;-81
2023/01/11 09:25:25;;;;;;;;;;;;;;;;;;4900493;29;20454;-83
2023/01/11 09:27:50;;;;;;;;;;;;;;;;;;4897429;29;20006;-83
2023/01/11 09:30:16;;;;;;;;;;;;;;;;;;4911473;29;19915;-82
2023/01/11 09:43:40;;;;;;;;;;;;;;;;;;4980519;28;19909;-83
2023/01/11 09:46:42;;;;;;;;;;;;;;;;;;;;;
2023/01/11 09:49:56;;;;;;;;;;;;;;;;;;4938451;29;19962;-83
2023/01/11 09:52:33;;;;;;;;;;;;;;;;;;4921781;29;20106;-84
2023/01/11 09:55:04;;;;;;;;;;;;;;;;;;4909451;29;19910;-83
2023/01/11 09:57:30;;;;;;;;;;;;;;;;;;4926210;29;19975;-83
2023/01/11 09:59:57;;;;;;;;;;;;;;;;;;4925401;29;19919;-83
2023/01/11 10:02:32;;;;;;;;;;;;;;;;;;5002633;23;21097;-82
2023/01/11 10:05:14;;;;;;;;;;;;;;;;;;5372478;23;19934;-83
2023/01/11 10:07:48;;;;;;;;;;;;;;;;;;5205526;23;21000;-83
2023/01/11 10:10:20;;;;;;;;;;;;;;;;;;4964319;28;19903;-83
2023/01/11 10:12:58;;;;;;;;;;;;;;;;;;;;;
2023/01/11 10:15:36;;;;;;;;;;;;;;;;;;4961775;28;19903;-83
2023/01/11 10:18:22;;;;;;;;;;;;;;;;;;4961245;28;19903;-83
2023/01/11 10:20:55;;;;;;;;;;;;;;;;;;4961635;28;19911;-83
2023/01/11 10:23:26;;;;;;;;;;;;;;;;;;4961546;28;19915;-83
2023/01/11 10:25:56;;;;;;;;;;;;;;;;;;4944868;28;19923;-83
2023/01/11 10:39:10;;;;;;;;;;;;;;;;;;4963397;28;19926;-83
2023/01/11 10:41:37;;;;;;;;;;;;;;;;;;4964328;28;19954;-82
2023/01/11 10:44:06;;;;;;;;;;;;;;;;;;4948174;29;19934;-84
2023/01/11 10:46:38;;;;;;;;;;;;;;;;;;4980472;28;19941;-82
2023/01/11 10:49:12;;;;;;;;;;;;;;;;;;4948747;28;19909;-83
2023/01/11 10:51:43;;;;;;;;;;;;;;;;;;4964475;28;19910;-83
2023/01/11 10:54:15;;;;;;;;;;;;;;;;;;4979744;28;19910;-83
2023/01/11 10:57:12;;;;;;;;;;;;;;;;;;5343176;23;19946;-82
2023/01/11 10:59:42;;;;;;;;;;;;;;;;;;4948774;29;19902;-83
2023/01/11 11:02:08;;;;;;;;;;;;;;;;;;4948171;29;19922;-83
2023/01/11 11:04:34;;;;;;;;;;;;;;;;;;5038025;23;19935;-84
2023/01/11 12:25:31;;;;;;;;;;;;;;;;;;5918247;23;20578;-83
2023/01/11 12:27:56;;;;;;;;;;;;;;;;;;4979889;29;19919;-83
2023/01/11 12:30:22;;;;;;;;;;;;;;;;;;4977676;28;20439;-82
2023/01/11 12:32:49;;;;;;;;;;;;;;;;;;4956315;29;19921;-82
2023/01/11 12:35:14;;;;;;;;;;;;;;;;;;4939064;29;19946;-82
2023/01/11 12:37:40;;;;;;;;;;;;;;;;;;4937381;29;19926;-82
2023/01/11 12:40:06;;;;;;;;;;;;;;;;;;4972772;28;19918;-83
2023/01/11 12:42:32;;;;;;;;;;;;;;;;;;4954175;29;19938;-83
2023/01/11 12:44:58;;;;;;;;;;;;;;;;;;4951290;29;19919;-82
2023/01/11 12:47:23;;;;;;;;;;;;;;;;;;4950012;29;19914;-82
2023/01/11 12:49:49;;;;;;;;;;;;;;;;;;4964466;29;19997;-83
2023/01/11 12:52:14;;;;;;;;;;;;;;;;;;4948982;29;19914;-82
2023/01/11 12:54:40;;;;;;;;;;;;;;;;;;4917450;29;20453;-83
2023/01/11 12:57:06;;;;;;;;;;;;;;;;;;4968186;29;20067;-81
2023/01/11 12:59:31;;;;;;;;;;;;;;;;;;4968292;29;19938;-81
2023/01/11 13:01:57;;;;;;;;;;;;;;;;;;4951882;29;19914;-82
2023/01/11 13:04:22;;;;;;;;;;;;;;;;;;4959608;29;19918;-82
2023/01/11 13:06:48;;;;;;;;;;;;;;;;;;4973340;29;19989;-82
2023/01/11 13:09:13;;;;;;;;;;;;;;;;;;4971369;29;19915;-82
2023/01/11 13:11:41;;;;;;;;;;;;;;;;;;4920087;29;20013;-81
2023/01/11 13:14:07;;;;;;;;;;;;;;;;;;4954780;29;19981;-81
2023/01/11 13:16:32;;;;;;;;;;;;;;;;;;4975670;29;19910;-83
2023/01/11 13:18:59;;;;;;;;;;;;;;;;;;4973847;28;19922;-82
2023/01/11 13:21:25;;;;;;;;;;;;;;;;;;4957808;29;19981;-83
2023/01/11 13:23:52;;;;;;;;;;;;;;;;;;4957189;29;19914;-82
2023/01/11 13:26:17;;;;;;;;;;;;;;;;;;4942139;29;19919;-82
2023/01/11 13:28:42;;;;;;;;;;;;;;;;;;4958942;29;19914;-82
2023/01/11 13:31:08;;;;;;;;;;;;;;;;;;4977116;28;19914;-83
2023/01/11 13:33:33;;;;;;;;;;;;;;;;;;4985609;28;19945;-82
2023/01/11 13:35:59;;;;;;;;;;;;;;;;;;4954370;29;19942;-83
2023/01/11 13:38:24;;;;;;;;;;;;;;;;;;4955721;29;19915;-83
2023/01/11 13:40:50;;;;;;;;;;;;;;;;;;4965834;29;19941;-82
2023/01/11 13:43:17;;;;;;;;;;;;;;;;;;4964005;28;19898;-84
2023/01/11 13:45:42;;;;;;;;;;;;;;;;;;4963960;29;19902;-84
2023/01/11 13:48:08;;;;;;;;;;;;;;;;;;4943544;29;19919;-83
2023/01/11 13:50:33;;;;;;;;;;;;;;;;;;4939070;29;19926;-84
2023/01/11 13:52:59;;;;;;;;;;;;;;;;;;4946324;28;19930;-83
2023/01/11 13:58:00;;;;;;;;;;;;;;;;;;5084708;23;19911;-84
2023/01/11 14:00:25;;;;;;;;;;;;;;;;;;4981074;28;19974;-82
2023/01/11 14:02:51;;;;;;;;;;;;;;;;;;4953319;28;19907;-83
2023/01/11 14:05:17;;;;;;;;;;;;;;;;;;4961902;28;19903;-82
2023/01/11 14:07:43;;;;;;;;;;;;;;;;;;4918052;28;19903;-84
2023/01/11 14:10:11;;;;;;;;;;;;;;;;;;4926367;29;20042;-85
2023/01/11 14:12:48;;;;;;;;;;;;;;;;;;4925577;29;19974;-84
2023/01/11 14:15:14;;;;;;;;;;;;;;;;;;4959976;29;19923;-82
2023/01/11 14:17:41;;;;;;;;;;;;;;;;;;4927904;29;19903;-82
2023/01/11 14:20:07;;;;;;;;;;;;;;;;;;4958801;29;19923;-82
2023/01/11 14:22:33;;;;;;;;;;;;;;;;;;4978342;28;20053;-83
2023/01/11 14:24:59;;;;;;;;;;;;;;;;;;4951673;29;19923;-83
2023/01/11 14:27:26;;;;;;;;;;;;;;;;;;4959113;29;19914;-83
2023/01/11 14:29:57;;;;;;;;;;;;;;;;;;4942552;29;19921;-83
2023/01/11 14:32:23;;;;;;;;;;;;;;;;;;4956499;29;19914;-83
2023/01/11 14:34:48;;;;;;;;;;;;;;;;;;4959707;29;19902;-82
2023/01/11 14:37:14;;;;;;;;;;;;;;;;;;4940193;29;19915;-82
2023/01/11 14:39:40;;;;;;;;;;;;;;;;;;4941970;29;20346;-83
2023/01/11 14:42:06;;;;;;;;;;;;;;;;;;4926495;29;19899;-82
2023/01/11 14:44:31;;;;;;;;;;;;;;;;;;4926409;29;19915;-83
2023/01/11 14:46:57;;;;;;;;;;;;;;;;;;4942135;29;19911;-80
2023/01/11 14:49:23;;;;;;;;;;;;;;;;;;4947507;29;19915;-82
2023/01/11 14:51:48;;;;;;;;;;;;;;;;;;4923977;29;19935;-83
2023/01/11 14:54:14;;;;;;;;;;;;;;;;;;4925213;29;19906;-83
2023/01/11 14:56:39;;;;;;;;;;;;;;;;;;4932513;29;19923;-82
2023/01/11 14:59:08;;;;;;;;;;;;;;;;;;4958428;28;19969;-83
2023/01/11 15:01:33;;;;;;;;;;;;;;;;;;4942103;29;19903;-83
2023/01/11 15:03:59;;;;;;;;;;;;;;;;;;4942471;29;19899;-82
2023/01/11 15:06:25;;;;;;;;;;;;;;;;;;4958042;29;19911;-83
2023/01/11 15:08:51;;;;;;;;;;;;;;;;;;4943307;29;19930;-83
2023/01/11 15:11:17;;;;;;;;;;;;;;;;;;4941868;29;19987;-83
2023/01/11 15:13:48;;;;;;;;;;;;;;;;;;4929036;28;19975;-82
2023/01/11 15:19:07;;;;;;;;;;;;;;;;;;4928599;29;19903;-84
2023/01/11 15:21:34;;;;;;;;;;;;;;;;;;4937837;29;19919;-84
2023/01/11 15:24:00;;;;;;;;;;;;;;;;;;4908699;29;19986;-83
2023/01/11 15:26:26;;;;;;;;;;;;;;;;;;4924681;29;19915;-85
2023/01/11 15:28:52;;;;;;;;;;;;;;;;;;4940743;29;19915;-83
2023/01/11 15:31:20;;;;;;;;;;;;;;;;;;4910384;29;19915;-83
2023/01/11 15:33:51;;;;;;;;;;;;;;;;;;4927829;29;19899;-84
2023/01/11 15:36:38;;;;;;;;;;;;;;;;;;4943550;29;19921;-84
2023/01/11 15:42:23;;;;;;;;;;;;;;;;;;4935416;29;19911;-85
2023/01/11 15:44:57;;;;;;;;;;;;;;;;;;4926820;29;19927;-81
2023/01/11 15:48:09;;;;;;;;;;;;;;;;;;4942646;29;19918;-82
2023/01/11 15:50:37;;;;;;;;;;;;;;;;;;4926105;29;19938;-83
2023/01/11 15:53:25;;;;;;;;;;;;;;;;;;4926598;29;19915;-83
2023/01/11 15:55:51;;;;;;;;;;;;;;;;;;4939538;29;19900;-82
2023/01/11 15:58:17;;;;;;;;;;;;;;;;;;4923806;29;19907;-84
2023/01/11 16:00:43;;;;;;;;;;;;;;;;;;4938735;29;19930;-83
2023/01/11 16:03:11;;;;;;;;;;;;;;;;;;4937948;29;19911;-82
2023/01/11 16:05:37;;;;;;;;;;;;;;;;;;4940406;29;19958;-82
2023/01/11 16:08:03;;;;;;;;;;;;;;;;;;4937085;29;19922;-83
2023/01/11 16:10:29;;;;;;;;;;;;;;;;;;4945098;29;19919;-82
2023/01/11 16:13:01;;;;;;;;;;;;;;;;;;4950731;29;19974;-82
2023/01/11 16:15:37;;;;;;;;;;;;;;;;;;4971435;29;20382;-80
2023/01/11 16:18:03;;;;;;;;;;;;;;;;;;4961990;29;19922;-85
2023/01/11 16:21:00;;;;;;;;;;;;;;;;;;4957462;29;19914;-83
2023/01/11 16:23:26;;;;;;;;;;;;;;;;;;4955281;29;19941;-82
2023/01/11 16:25:57;;;;;;;;;;;;;;;;;;4941877;29;19898;-84
2023/01/11 16:28:23;;;;;;;;;;;;;;;;;;4934736;29;19957;-83
2023/01/11 16:30:49;;;;;;;;;;;;;;;;;;4934000;29;19974;-83
2023/01/11 16:33:14;;;;;;;;;;;;;;;;;;4936606;29;19914;-83
2023/01/11 16:35:40;;;;;;;;;;;;;;;;;;4921308;29;19939;-83
2023/01/11 16:38:05;;;;;;;;;;;;;;;;;;4948451;29;20013;-82
2023/01/11 16:40:31;;;;;;;;;;;;;;;;;;4955552;29;19962;-84
2023/01/11 16:42:56;;;;;;;;;;;;;;;;;;4937865;29;19915;-83
2023/01/11 16:45:25;;;;;;;;;;;;;;;;;;4923539;29;19986;-84
2023/01/11 16:47:53;;;;;;;;;;;;;;;;;;4944457;29;19915;-83
2023/01/11 16:50:23;;;;;;;;;;;;;;;;;;4896953;29;20000;-84
2023/01/11 16:52:49;;;;;;;;;;;;;;;;;;4937711;29;19953;-84
2023/01/11 16:55:17;;;;;;;;;;;;;;;;;;4924211;29;19946;-84
2023/01/11 16:57:43;;;;;;;;;;;;;;;;;;4935220;29;19927;-84
2023/01/11 17:00:14;;;;;;;;;;;;;;;;;;4942244;29;19961;-84
2023/01/11 17:02:46;;;;;;;;;;;;;;;;;;4916564;29;19899;-86
2023/01/11 17:05:12;;;;;;;;;;;;;;;;;;4942020;29;19992;-83
2023/01/11 17:07:50;;;;;;;;;;;;;;;;;;4915785;29;19961;-84
2023/01/11 17:10:30;;;;;;;;;;;;;;;;;;4930077;29;19919;-84
2023/01/11 17:16:08;;;;;;;;;;;;;;;;;;4924251;29;19919;-82
2023/01/11 17:18:34;;;;;;;;;;;;;;;;;;4929871;29;19930;-84
2023/01/11 17:21:00;;;;;;;;;;;;;;;;;;4929609;29;19927;-84
2023/01/11 17:26:14;;;;;;;;;;;;;;;;;;5543705;23;19934;-85
2023/01/11 17:28:42;;;;;;;;;;;;;;;;;;4981677;28;19918;-84
2023/01/11 17:31:09;;;;;;;;;;;;;;;;;;4930182;29;19906;-83
2023/01/11 17:33:36;;;;;;;;;;;;;;;;;;4931474;28;19919;-85
2023/01/11 17:36:02;;;;;;;;;;;;;;;;;;4914184;28;19966;-84
2023/01/11 17:38:29;;;;;;;;;;;;;;;;;;5313867;23;19927;-84
2023/01/11 17:40:55;;;;;;;;;;;;;;;;;;4929726;29;19905;-84
2023/01/11 17:46:07;;;;;;;;;;;;;;;;;;4943066;29;19903;-84
2023/01/11 17:48:41;;;;;;;;;;;;;;;;;;4944181;29;19953;-85
2023/01/11 17:51:08;;;;;;;;;;;;;;;;;;4927707;29;19915;-85
2023/01/11 17:53:34;;;;;;;;;;;;;;;;;;4940824;29;19915;-84
2023/01/11 17:55:59;;;;;;;;;;;;;;;;;;4927230;29;19925;-85
2023/01/11 17:58:25;;;;;;;;;;;;;;;;;;4928078;29;19957;-86
2023/01/11 18:00:50;;;;;;;;;;;;;;;;;;4909109;29;20260;-86
2023/01/11 18:03:19;;;;;;;;;;;;;;;;;;4927014;29;19914;-89
2023/01/11 18:05:45;;;;;;;;;;;;;;;;;;4922977;29;19996;-87
2023/01/11 18:08:10;;;;;;;;;;;;;;;;;;4923563;29;19904;-88
2023/01/11 18:10:39;;;;;;;;;;;;;;;;;;4899333;29;19916;-89
2023/01/11 18:13:04;;;;;;;;;;;;;;;;;;4906861;29;19950;-88
2023/01/11 18:15:32;;;;;;;;;;;;;;;;;;4895473;29;19922;-91
2023/01/11 18:17:58;;;;;;;;;;;;;;;;;;4878837;29;19922;-90
2023/01/11 18:20:24;;;;;;;;;;;;;;;;;;4876435;29;19922;-89
2023/01/11 18:22:52;;;;;;;;;;;;;;;;;;4939185;29;19970;-87
2023/01/11 18:25:20;;;;;;;;;;;;;;;;;;4924559;29;19899;-89
2023/01/11 18:27:51;;;;;;;;;;;;;;;;;;4942590;29;19907;-84
2023/01/11 18:30:18;;;;;;;;;;;;;;;;;;4913557;29;19974;-88
2023/01/11 18:32:46;;;;;;;;;;;;;;;;;;4928625;28;19927;-92
2023/01/11 18:35:16;;;;;;;;;;;;;;;;;;4928928;28;19903;-89
2023/01/11 18:37:49;;;;;;;;;;;;;;;;;;4928507;28;19938;-93
2023/01/11 18:40:18;;;;;;;;;;;;;;;;;;4928740;28;19921;-89
2023/01/11 18:53:31;;;;;;;;;;;;;;;;;;5276057;23;19994;-92
2023/01/11 18:55:56;;;;;;;;;;;;;;;;;;4935458;29;19914;-93
2023/01/11 18:58:25;;;;;;;;;;;;;;;;;;4941572;29;19944;-89
2023/01/11 19:00:53;;;;;;;;;;;;;;;;;;4968276;29;19923;-92
2023/01/11 19:03:21;;;;;;;;;;;;;;;;;;4911585;29;19998;-90
2023/01/11 19:05:50;;;;;;;;;;;;;;;;;;4909138;29;19921;-92
2023/01/11 19:08:17;;;;;;;;;;;;;;;;;;4907991;29;19910;-91
2023/01/11 19:10:45;;;;;;;;;;;;;;;;;;4909328;29;20109;-92
2023/01/11 19:13:18;;;;;;;;;;;;;;;;;;4924737;29;19915;-92
2023/01/11 19:15:46;;;;;;;;;;;;;;;;;;4905992;29;19922;-92